createdAt,value
2019-04-26T00:01:28.927Z,2.83
2019-04-26T00:03:59.041Z,3.00
2019-04-26T00:06:36.079Z,5.10
2019-04-26T00:09:22.202Z,2.23
2019-04-26T00:12:00.125Z,3.30
2019-04-26T00:14:48.748Z,1.73
2019-04-26T00:17:36.962Z,3.93
2019-04-26T00:20:08.466Z,5.07
2019-04-26T00:22:38.595Z,4.47
2019-04-26T00:25:09.968Z,3.87
2019-04-26T00:27:49.318Z,2.93
2019-04-26T00:30:21.069Z,2.90
2019-04-26T00:32:51.901Z,2.30
2019-04-26T00:35:46.853Z,4.00
2019-04-26T00:38:08.476Z,2.70
2019-04-26T00:40:39.150Z,4.40
2019-04-26T00:43:09.485Z,2.00
2019-04-26T00:45:41.892Z,3.97
2019-04-26T00:48:23.314Z,3.80
2019-04-26T00:50:55.679Z,5.57
2019-04-26T00:53:28.363Z,5.73
2019-04-26T00:56:02.943Z,4.80
2019-04-26T00:58:33.786Z,5.17
2019-04-26T01:01:04.298Z,3.50
2019-04-26T01:03:34.605Z,2.97
2019-04-26T01:06:07.218Z,3.87
2019-04-26T01:08:37.322Z,3.37
2019-04-26T01:11:07.879Z,8.33
2019-04-26T01:13:38.157Z,6.30
2019-04-26T01:16:08.609Z,7.90
2019-04-26T01:18:39.042Z,3.33
2019-04-26T01:21:10.658Z,5.43
2019-04-26T01:23:43.722Z,5.53
2019-04-26T01:26:19.154Z,4.13
2019-04-26T01:28:58.361Z,5.50
2019-04-26T01:31:30.980Z,3.27
2019-04-26T01:34:02.060Z,4.30
2019-04-26T01:36:33.800Z,3.47
2019-04-26T01:39:16.790Z,3.50
2019-04-26T01:41:54.398Z,2.13
2019-04-26T01:44:41.463Z,5.07
2019-04-26T01:47:11.969Z,3.07
2019-04-26T01:49:42.415Z,3.47
2019-04-26T01:52:14.904Z,3.70
2019-04-26T01:54:46.023Z,3.13
2019-04-26T01:57:16.428Z,6.00
2019-04-26T01:59:52.741Z,4.87
2019-04-26T02:02:33.337Z,4.30
2019-04-26T02:05:06.208Z,3.50
2019-04-26T02:07:39.522Z,3.10
2019-04-26T02:10:12.557Z,8.27
2019-04-26T02:12:46.685Z,5.63
2019-04-26T02:15:19.752Z,6.63
2019-04-26T02:17:51.993Z,5.60
2019-04-26T02:21:34.221Z,5.90
2019-04-26T02:24:27.989Z,3.40
2019-04-26T02:26:59.115Z,3.53
2019-04-26T02:29:30.407Z,5.17
2019-04-26T02:32:10.138Z,3.57
2019-04-26T02:34:41.228Z,7.53
2019-04-26T02:37:14.254Z,5.50
2019-04-26T02:39:47.779Z,6.13
2019-04-26T02:42:41.223Z,3.00
2019-04-26T02:46:07.890Z,2.97
2019-04-26T02:49:09.556Z,7.83
2019-04-26T02:51:46.178Z,8.40
2019-04-26T02:54:45.039Z,4.80
2019-04-26T02:57:38.882Z,4.17
2019-04-26T03:00:12.368Z,3.30
2019-04-26T03:02:43.904Z,5.93
2019-04-26T03:05:14.295Z,4.47
2019-04-26T03:07:57.122Z,4.73
2019-04-26T03:10:35.925Z,5.93
2019-04-26T03:13:10.157Z,4.03
2019-04-26T03:15:54.290Z,3.07
2019-04-26T03:18:43.488Z,4.80
2019-04-26T03:21:24.982Z,5.53
2019-04-26T03:24:18.073Z,5.40
2019-04-26T03:27:11.885Z,8.67
2019-04-26T03:30:19.011Z,4.87
2019-04-26T03:33:05.010Z,7.00
2019-04-26T03:36:29.577Z,4.80
2019-04-26T03:39:30.430Z,5.20
2019-04-26T03:42:35.176Z,7.00
2019-04-26T03:45:17.451Z,5.30
2019-04-26T03:47:54.662Z,8.20
2019-04-26T03:50:35.284Z,7.80
2019-04-26T03:53:27.233Z,8.80
2019-04-26T03:56:42.369Z,5.00
2019-04-26T03:59:50.467Z,6.77
2019-04-26T04:02:42.998Z,6.63
2019-04-26T04:05:43.696Z,6.03
2019-04-26T04:08:21.951Z,7.00
2019-04-26T04:11:05.135Z,5.80
2019-04-26T04:13:51.216Z,8.30
2019-04-26T04:16:50.264Z,6.90
2019-04-26T04:20:08.057Z,8.63
2019-04-26T04:22:45.338Z,7.20
2019-04-26T04:25:19.791Z,5.80
2019-04-26T04:28:03.559Z,7.07
2019-04-26T04:30:42.239Z,7.43
2019-04-26T04:33:23.800Z,7.17
2019-04-26T04:35:59.899Z,6.97
2019-04-26T04:38:53.489Z,12.60
2019-04-26T04:41:41.134Z,10.50
2019-04-26T04:44:24.768Z,6.57
2019-04-26T04:47:31.379Z,11.97
2019-04-26T04:50:37.637Z,9.03
2019-04-26T04:53:33.119Z,11.77
2019-04-26T04:56:53.387Z,13.37
2019-04-26T04:59:33.445Z,12.73
2019-04-26T05:02:32.904Z,15.27
2019-04-26T05:05:29.375Z,11.63
2019-04-26T05:08:09.245Z,18.40
2019-04-26T05:11:03.623Z,12.20
2019-04-26T05:13:57.244Z,16.07
2019-04-26T05:16:45.428Z,17.40
2019-04-26T05:19:46.814Z,22.10
2019-04-26T05:22:43.439Z,11.73
2019-04-26T05:25:45.161Z,20.90
2019-04-26T05:28:36.182Z,15.67
2019-04-26T05:31:30.163Z,15.00
2019-04-26T05:34:33.713Z,16.10
2019-04-26T05:37:39.085Z,16.03
2019-04-26T05:40:38.193Z,18.63
2019-04-26T05:43:36.021Z,19.47
2019-04-26T05:46:38.254Z,17.00
2019-04-26T05:49:28.983Z,19.60
2019-04-26T05:52:51.639Z,17.17
2019-04-26T05:56:00.954Z,16.97
2019-04-26T05:59:00.282Z,19.03
2019-04-26T06:02:17.567Z,17.73
2019-04-26T06:05:03.549Z,20.60
2019-04-26T06:07:58.661Z,20.83
2019-04-26T06:10:41.808Z,16.13
2019-04-26T06:13:45.883Z,20.40
2019-04-26T06:16:52.159Z,24.77
2019-04-26T06:19:51.824Z,24.33
2019-04-26T06:22:32.373Z,21.30
2019-04-26T06:25:28.989Z,19.27
2019-04-26T06:28:10.885Z,17.70
2019-04-26T06:30:53.954Z,21.50
2019-04-26T06:33:31.893Z,46.07
2019-04-26T06:36:09.022Z,21.93
2019-04-26T06:39:11.978Z,23.07
2019-04-26T06:42:07.363Z,17.63
2019-04-26T06:44:55.007Z,24.77
2019-04-26T06:47:35.913Z,19.83
2019-04-26T06:50:15.442Z,19.33
2019-04-26T06:52:59.104Z,22.37
2019-04-26T06:55:56.478Z,24.67
2019-04-26T06:59:17.219Z,22.33
2019-04-26T07:01:59.052Z,19.23
2019-04-26T07:04:55.977Z,22.47
2019-04-26T07:07:58.144Z,18.37
2019-04-26T07:10:52.415Z,34.73
2019-04-26T07:13:55.545Z,28.70
2019-04-26T07:16:56.682Z,20.43
2019-04-26T07:20:01.470Z,22.27
2019-04-26T07:23:04.108Z,29.43
2019-04-26T07:26:09.209Z,18.97
2019-04-26T07:28:50.632Z,21.33
2019-04-26T07:31:49.311Z,22.37
2019-04-26T07:34:57.277Z,19.50
2019-04-26T07:38:08.922Z,26.93
2019-04-26T07:41:18.274Z,24.50
2019-04-26T07:44:39.383Z,16.43
2019-04-26T07:48:19.438Z,20.07
2019-04-26T07:51:26.458Z,16.43
2019-04-26T07:54:44.088Z,16.43
2019-04-26T07:57:47.158Z,20.30
2019-04-26T08:00:44.380Z,18.20
2019-04-26T08:03:37.429Z,15.60
2019-04-26T08:06:29.089Z,16.10
2019-04-26T08:09:10.800Z,17.40
2019-04-26T08:11:53.278Z,14.37
2019-04-26T08:15:06.097Z,10.50
2019-04-26T08:17:57.248Z,13.23
2019-04-26T08:20:42.789Z,10.40
2019-04-26T08:23:37.558Z,7.37
2019-04-26T08:25:51.794Z,10.77
2019-04-26T08:28:26.318Z,10.00
2019-04-26T08:30:58.945Z,12.70
2019-04-26T08:33:48.446Z,15.63
2019-04-26T08:36:15.290Z,13.50
2019-04-26T08:38:48.836Z,13.40
2019-04-26T08:41:29.034Z,11.53
2019-04-26T08:44:19.544Z,17.83
2019-04-26T08:47:21.103Z,11.53
2019-04-26T08:49:57.175Z,12.13
2019-04-26T08:52:31.190Z,14.20
2019-04-26T08:55:05.251Z,19.00
2019-04-26T08:57:39.913Z,11.77
2019-04-26T09:00:22.441Z,19.00
2019-04-26T09:03:22.902Z,11.40
2019-04-26T09:06:05.277Z,9.67
2019-04-26T09:08:39.194Z,9.40
2019-04-26T09:11:25.442Z,13.43
2019-04-26T09:13:50.052Z,18.07
2019-04-26T09:16:21.444Z,12.90
2019-04-26T09:18:54.286Z,6.90
2019-04-26T09:21:31.288Z,10.17
2019-04-26T09:24:21.093Z,7.43
2019-04-26T09:27:12.896Z,14.30
2019-04-26T09:30:00.487Z,7.80
2019-04-26T09:32:42.752Z,9.93
2019-04-26T09:35:15.267Z,12.03
2019-04-26T09:37:45.582Z,7.73
2019-04-26T09:40:21.731Z,8.20
2019-04-26T09:43:02.744Z,9.43
2019-04-26T09:46:07.743Z,12.10
2019-04-26T09:48:43.339Z,7.93
2019-04-26T09:51:13.394Z,11.60
2019-04-26T09:53:44.766Z,6.83
2019-04-26T09:56:15.566Z,10.23
2019-04-26T09:58:45.637Z,11.20
2019-04-26T10:01:19.746Z,7.77
2019-04-26T10:03:48.201Z,12.03
2019-04-26T10:06:18.790Z,7.83
2019-04-26T10:08:49.169Z,16.47
2019-04-26T10:11:25.555Z,10.30
2019-04-26T10:14:11.829Z,9.57
2019-04-26T10:16:54.526Z,16.13
2019-04-26T10:19:45.891Z,6.43
2019-04-26T10:22:21.314Z,7.67
2019-04-26T10:24:51.469Z,13.00
2019-04-26T10:27:22.098Z,6.50
2019-04-26T10:29:56.543Z,10.80
2019-04-26T10:32:26.275Z,6.10
2019-04-26T10:34:56.509Z,14.03
2019-04-26T10:37:38.725Z,11.50
2019-04-26T10:39:58.804Z,7.93
2019-04-26T10:42:30.734Z,5.80
2019-04-26T10:45:01.144Z,5.20
2019-04-26T10:47:38.475Z,9.70
2019-04-26T10:50:08.862Z,10.87
2019-04-26T10:52:55.498Z,13.50
2019-04-26T10:55:42.041Z,9.83
2019-04-26T10:58:37.644Z,7.83
2019-04-26T11:01:13.273Z,9.70
2019-04-26T11:03:45.535Z,10.63
2019-04-26T11:06:16.136Z,11.53
2019-04-26T11:08:47.292Z,12.67
2019-04-26T11:11:17.598Z,14.10
2019-04-26T11:13:48.138Z,10.00
2019-04-26T11:16:22.278Z,9.47
2019-04-26T11:18:57.126Z,6.97
2019-04-26T11:21:25.623Z,5.87
2019-04-26T11:23:56.818Z,6.20
2019-04-26T11:26:27.403Z,9.20
2019-04-26T11:28:57.608Z,6.23
2019-04-26T11:31:30.293Z,11.20
2019-04-26T11:34:05.554Z,10.00
2019-04-26T11:36:37.483Z,15.97
2019-04-26T11:39:09.526Z,8.70
2019-04-26T11:41:40.558Z,12.40
2019-04-26T11:44:11.709Z,9.30
2019-04-26T11:46:44.849Z,5.67
2019-04-26T11:49:15.103Z,7.97
2019-04-26T11:51:46.249Z,7.87
2019-04-26T11:54:17.001Z,5.83
2019-04-26T11:56:53.893Z,5.70
2019-04-26T11:59:27.040Z,4.77
2019-04-26T12:01:57.308Z,7.50
2019-04-26T12:04:44.717Z,4.80
2019-04-26T12:07:24.534Z,7.97
2019-04-26T12:09:57.402Z,4.00
2019-04-26T12:12:30.009Z,3.53
2019-04-26T12:15:04.023Z,6.40
2019-04-26T12:17:35.069Z,6.60
2019-04-26T12:20:06.620Z,8.10
2019-04-26T12:22:39.458Z,4.57
2019-04-26T12:25:09.312Z,6.23
2019-04-26T12:27:39.662Z,2.93
2019-04-26T12:30:10.677Z,6.20
2019-04-26T12:32:41.030Z,5.63
2019-04-26T12:35:11.790Z,4.17
2019-04-26T12:37:41.964Z,12.63
2019-04-26T12:40:12.809Z,5.30
2019-04-26T12:42:43.349Z,6.20
2019-04-26T12:45:47.471Z,3.63
2019-04-26T12:48:17.700Z,6.03
2019-04-26T12:50:47.809Z,5.70
2019-04-26T12:53:26.644Z,10.50
2019-04-26T12:55:58.411Z,7.73
2019-04-26T12:58:28.780Z,3.37
2019-04-26T13:01:00.574Z,9.03
2019-04-26T13:03:30.933Z,15.10
2019-04-26T13:06:01.073Z,8.20
2019-04-26T13:08:32.002Z,8.43
2019-04-26T13:11:24.770Z,9.40
2019-04-26T13:14:08.739Z,15.97
2019-04-26T13:17:13.856Z,11.07
2019-04-26T13:19:44.292Z,22.93
2019-04-26T13:22:14.632Z,16.53
2019-04-26T13:24:45.525Z,16.13
2019-04-26T13:27:16.271Z,14.00
2019-04-26T13:30:01.366Z,14.03
2019-04-26T13:32:20.877Z,18.43
2019-04-26T13:34:51.832Z,12.93
2019-04-26T13:37:22.565Z,11.03
2019-04-26T13:39:55.147Z,12.83
2019-04-26T13:42:25.989Z,23.90
2019-04-26T13:45:21.695Z,21.93
2019-04-26T13:48:11.622Z,14.00
2019-04-26T13:51:01.362Z,9.63
2019-04-26T13:53:33.640Z,15.93
2019-04-26T13:56:05.739Z,15.00
2019-04-26T13:58:36.415Z,12.93
2019-04-26T14:01:09.279Z,14.30
2019-04-26T14:03:48.299Z,14.23
2019-04-26T14:06:23.947Z,12.13
2019-04-26T14:09:03.053Z,10.53
2019-04-26T14:11:38.854Z,13.27
2019-04-26T14:14:14.753Z,12.30
2019-04-26T14:16:46.563Z,11.73
2019-04-26T14:19:19.149Z,8.13
2019-04-26T14:21:50.551Z,9.37
2019-04-26T14:24:47.568Z,7.90
2019-04-26T14:27:21.271Z,7.87
2019-04-26T14:29:54.967Z,6.77
2019-04-26T14:32:26.744Z,14.87
2019-04-26T14:34:57.915Z,7.87
2019-04-26T14:37:28.656Z,9.63
2019-04-26T14:40:16.828Z,10.93
2019-04-26T14:42:49.000Z,11.27
2019-04-26T14:45:24.374Z,5.70
2019-04-26T14:47:56.020Z,6.70
2019-04-26T14:50:28.157Z,8.50
2019-04-26T14:53:02.324Z,4.27
2019-04-26T14:55:33.280Z,4.70
2019-04-26T14:58:03.796Z,5.97
2019-04-26T15:00:36.223Z,5.20
2019-04-26T15:03:17.396Z,7.30
2019-04-26T15:05:58.127Z,6.37
2019-04-26T15:08:28.513Z,4.73
2019-04-26T15:11:01.144Z,5.70
2019-04-26T15:13:36.196Z,7.63
2019-04-26T15:16:16.445Z,4.17
2019-04-26T15:18:46.762Z,4.17
2019-04-26T15:21:27.307Z,7.77
2019-04-26T15:23:59.434Z,3.67
2019-04-26T15:26:29.908Z,2.37
2019-04-26T15:29:02.529Z,9.03
2019-04-26T15:31:33.126Z,2.80
2019-04-26T15:34:09.937Z,4.73
2019-04-26T15:36:43.487Z,3.20
2019-04-26T15:39:34.037Z,4.03
2019-04-26T15:42:25.158Z,3.50
2019-04-26T15:45:01.724Z,3.50
2019-04-26T15:47:52.494Z,3.03
2019-04-26T15:50:31.977Z,2.90
2019-04-26T15:53:02.487Z,2.27
2019-04-26T15:55:39.929Z,2.50
2019-04-26T15:58:09.237Z,1.40
2019-04-26T16:00:39.656Z,5.23
2019-04-26T16:03:12.746Z,1.40
2019-04-26T16:05:45.506Z,3.73
2019-04-26T16:08:15.643Z,2.20
2019-04-26T16:10:45.981Z,2.73
2019-04-26T16:13:21.043Z,2.10
2019-04-26T16:15:52.468Z,1.93
2019-04-26T16:18:23.074Z,5.50
2019-04-26T16:20:53.657Z,2.07
2019-04-26T16:23:38.238Z,1.57
2019-04-26T16:25:59.035Z,6.47
2019-04-26T16:28:46.196Z,5.30
2019-04-26T16:31:36.047Z,2.70
2019-04-26T16:34:10.750Z,1.00
2019-04-26T16:36:45.502Z,4.93
2019-04-26T16:39:16.145Z,2.30
2019-04-26T16:42:05.043Z,1.75
2019-04-26T16:44:33.991Z,2.40
2019-04-26T16:49:41.871Z,1.47
2019-04-26T16:52:19.517Z,4.10
2019-04-26T16:54:52.895Z,3.77
2019-04-26T16:57:24.367Z,2.83
2019-04-26T16:59:59.842Z,4.03
2019-04-26T17:00:32.160Z,2.23
2019-04-26T17:02:29.190Z,3.00
2019-04-26T17:05:03.639Z,5.43
2019-04-26T17:07:39.183Z,5.90
2019-04-26T17:10:06.714Z,4.70
2019-04-26T17:12:37.412Z,2.77
2019-04-26T17:15:07.812Z,1.53
2019-04-26T17:17:50.154Z,1.97
2019-04-26T17:20:18.097Z,1.23
2019-04-26T17:23:12.350Z,3.10
2019-04-26T17:26:02.097Z,2.80
2019-04-26T17:28:35.351Z,1.50
2019-04-26T17:31:07.537Z,1.83
2019-04-26T17:33:39.173Z,4.97
2019-04-26T17:36:15.596Z,1.87
2019-04-26T17:38:46.377Z,8.23
2019-04-26T17:41:16.810Z,4.53
2019-04-26T17:43:50.516Z,4.60
2019-04-26T17:46:23.300Z,3.13
2019-04-26T17:48:56.685Z,9.73
2019-04-26T17:51:27.029Z,4.63
2019-04-26T17:54:21.237Z,7.60
2019-04-26T17:56:34.892Z,5.63
2019-04-26T17:59:09.390Z,1.40
2019-04-26T18:01:47.446Z,3.47
2019-04-26T18:04:31.546Z,3.10
2019-04-26T18:07:01.809Z,6.53
2019-04-26T18:09:41.642Z,3.73
2019-04-26T18:12:01.032Z,3.00
2019-04-26T18:14:32.892Z,7.00
2019-04-26T18:17:14.078Z,3.77
2019-04-26T18:19:52.820Z,2.83
2019-04-26T18:22:39.310Z,2.47
2019-04-26T18:25:13.024Z,4.90
2019-04-26T18:27:44.066Z,5.43
2019-04-26T18:30:14.494Z,3.13
2019-04-26T18:32:47.675Z,2.20
2019-04-26T18:35:29.621Z,5.30
2019-04-26T18:38:01.286Z,2.47
2019-04-26T18:40:35.360Z,5.93
2019-04-26T18:43:03.758Z,2.17
2019-04-26T18:45:37.154Z,2.60
2019-04-26T18:48:07.697Z,5.77
2019-04-26T18:50:37.789Z,7.20
2019-04-26T18:53:30.518Z,2.50
2019-04-26T18:56:03.467Z,5.83
2019-04-26T18:58:34.990Z,7.20
2019-04-26T19:01:13.559Z,4.33
2019-04-26T19:03:49.605Z,6.80
2019-04-26T19:06:29.766Z,10.93
2019-04-26T19:08:52.819Z,8.17
2019-04-26T19:11:32.710Z,5.43
2019-04-26T19:14:14.942Z,8.33
2019-04-26T19:17:03.312Z,8.00
2019-04-26T19:19:56.720Z,7.30
2019-04-26T19:22:27.553Z,8.10
2019-04-26T19:25:04.053Z,13.13
2019-04-26T19:27:47.077Z,14.87
2019-04-26T19:30:09.168Z,11.97
2019-04-26T19:32:40.614Z,10.80
2019-04-26T19:35:14.305Z,10.07
2019-04-26T19:37:47.241Z,13.17
2019-04-26T19:40:20.026Z,10.07
2019-04-26T19:42:55.360Z,12.80
2019-04-26T19:45:45.928Z,13.50
2019-04-26T19:48:39.438Z,17.93
2019-04-26T19:51:32.722Z,14.60
2019-04-26T19:54:31.392Z,13.20
2019-04-26T19:57:15.128Z,16.03
2019-04-26T19:59:46.476Z,12.60
2019-04-26T20:02:19.422Z,11.10
2019-04-26T20:04:51.400Z,12.60
2019-04-26T20:07:28.233Z,11.17
2019-04-26T20:10:02.380Z,16.70
2019-04-26T20:12:35.213Z,11.20
2019-04-26T20:15:04.458Z,12.97
2019-04-26T20:17:37.618Z,9.70
2019-04-26T20:20:18.985Z,14.57
2019-04-26T20:22:42.112Z,8.60
2019-04-26T20:25:12.616Z,9.60
2019-04-26T20:27:45.030Z,7.80
2019-04-26T20:30:27.574Z,8.07
2019-04-26T20:32:57.397Z,11.80
2019-04-26T20:35:28.360Z,5.50
2019-04-26T20:38:01.097Z,6.10
2019-04-26T20:40:30.984Z,5.50
2019-04-26T20:43:03.364Z,4.90
2019-04-26T20:45:41.301Z,8.13
2019-04-26T20:48:11.454Z,4.00
2019-04-26T20:50:41.810Z,4.20
2019-04-26T20:53:12.110Z,4.13
2019-04-26T20:55:42.851Z,5.93
2019-04-26T20:58:13.421Z,6.63
2019-04-26T21:00:53.776Z,3.80
2019-04-26T21:03:23.780Z,5.00
2019-04-26T21:05:52.761Z,3.63
2019-04-26T21:08:25.785Z,6.97
2019-04-26T21:10:56.070Z,4.60
2019-04-26T21:13:30.874Z,6.50
2019-04-26T21:16:03.581Z,5.07
2019-04-26T21:18:44.074Z,8.20
2019-04-26T21:21:15.942Z,5.77
2019-04-26T21:23:49.067Z,8.33
2019-04-26T21:26:42.473Z,5.77
2019-04-26T21:29:26.523Z,6.73
2019-04-26T21:32:32.785Z,4.30
2019-04-26T21:35:05.044Z,4.27
2019-04-26T21:37:39.445Z,4.87
2019-04-26T21:40:16.893Z,4.80
2019-04-26T21:42:45.448Z,4.33
2019-04-26T21:45:16.690Z,10.33
2019-04-26T21:47:47.977Z,5.63
2019-04-26T21:50:20.600Z,9.80
2019-04-26T21:52:58.641Z,4.40
2019-04-26T21:55:35.371Z,6.60
2019-04-26T21:58:00.790Z,4.27
2019-04-26T22:00:53.863Z,7.33
2019-04-26T22:03:28.505Z,4.60
2019-04-26T22:06:04.227Z,4.37
2019-04-26T22:08:37.538Z,5.27
2019-04-26T22:11:08.452Z,5.77
2019-04-26T22:14:00.613Z,6.20
2019-04-26T22:16:49.655Z,6.43
2019-04-26T22:19:32.589Z,6.10
2019-04-26T22:22:15.146Z,4.17
2019-04-26T22:24:45.793Z,4.50
2019-04-26T22:27:17.469Z,4.17
2019-04-26T22:29:51.740Z,4.33
2019-04-26T22:32:19.869Z,6.37
2019-04-26T22:34:49.960Z,4.70
2019-04-26T22:37:29.519Z,3.40
2019-04-26T22:39:54.386Z,6.50
2019-04-26T22:42:26.608Z,4.00
2019-04-26T22:45:09.297Z,3.67
2019-04-26T22:47:46.961Z,3.10
2019-04-26T22:50:20.737Z,3.27
2019-04-26T22:52:51.558Z,3.63
2019-04-26T22:55:27.217Z,3.50
2019-04-26T22:57:54.861Z,3.43
2019-04-26T23:00:29.556Z,6.70
2019-04-26T23:03:08.441Z,6.40
2019-04-26T23:05:39.491Z,11.10
2019-04-26T23:08:13.485Z,4.60
2019-04-26T23:10:47.872Z,6.87
2019-04-26T23:13:29.797Z,8.07
2019-04-26T23:16:17.905Z,5.80
2019-04-26T23:18:59.472Z,6.73
2019-04-26T23:21:35.586Z,6.77
2019-04-26T23:24:05.469Z,6.50
2019-04-26T23:26:37.495Z,8.20
2019-04-26T23:29:14.094Z,7.03
2019-04-26T23:31:41.732Z,5.60
2019-04-26T23:34:25.246Z,7.70
2019-04-26T23:36:55.996Z,8.10
2019-04-26T23:39:26.528Z,8.70
2019-04-26T23:41:57.320Z,8.83
2019-04-26T23:44:28.499Z,10.83
2019-04-26T23:47:01.186Z,8.70
2019-04-26T23:49:31.049Z,17.47
2019-04-26T23:52:01.365Z,11.13
2019-04-26T23:54:32.344Z,11.57
2019-04-26T23:57:04.022Z,10.83
2019-04-26T23:59:34.321Z,10.20
